createdAt,value
2023-03-27T00:01:55.315Z,6.77
2023-03-27T00:04:24.279Z,6.76
2023-03-27T00:06:55.637Z,6.76
2023-03-27T00:09:24.316Z,6.76
2023-03-27T00:11:53.216Z,6.75
2023-03-27T00:14:22.517Z,6.74
2023-03-27T00:16:51.741Z,6.72
2023-03-27T00:19:21.532Z,6.71
2023-03-27T00:21:50.416Z,6.69
2023-03-27T00:24:19.389Z,6.68
2023-03-27T00:26:48.202Z,6.65
2023-03-27T00:29:17.497Z,6.63
2023-03-27T00:31:46.897Z,6.62
2023-03-27T00:34:15.356Z,6.61
2023-03-27T00:36:46.017Z,6.60
2023-03-27T00:39:14.891Z,6.59
2023-03-27T00:41:45.007Z,6.59
2023-03-27T00:44:31.716Z,6.58
2023-03-27T00:47:03.265Z,6.56
2023-03-27T00:49:34.751Z,6.55
2023-03-27T00:52:05.560Z,6.54
2023-03-27T00:54:39.226Z,6.53
2023-03-27T00:57:11.229Z,6.52
2023-03-27T00:59:41.739Z,6.52
2023-03-27T01:02:11.364Z,6.50
2023-03-27T01:04:42.088Z,6.50
2023-03-27T01:07:13.558Z,6.50
2023-03-27T01:09:43.254Z,6.50
2023-03-27T01:12:35.720Z,6.51
2023-03-27T01:15:20.694Z,6.51
2023-03-27T01:18:10.754Z,6.52
2023-03-27T01:20:51.682Z,6.52
2023-03-27T01:24:15.112Z,6.51
2023-03-27T01:26:49.204Z,6.50
2023-03-27T01:29:37.851Z,6.50
2023-03-27T01:32:27.838Z,6.48
2023-03-27T01:35:22.153Z,6.48
2023-03-27T01:38:12.932Z,6.47
2023-03-27T01:40:54.389Z,6.47
2023-03-27T01:43:31.814Z,6.46
2023-03-27T01:46:15.263Z,6.46
2023-03-27T01:48:52.794Z,6.45
2023-03-27T01:51:27.842Z,6.43
2023-03-27T01:54:04.203Z,6.42
2023-03-27T01:56:38.064Z,6.39
2023-03-27T01:59:12.254Z,6.36
2023-03-27T02:01:44.698Z,6.34
2023-03-27T02:04:24.141Z,6.32
2023-03-27T02:06:57.736Z,6.31
2023-03-27T02:09:34.651Z,6.31
2023-03-27T02:12:12.439Z,6.30
2023-03-27T02:14:46.155Z,6.30
2023-03-27T02:17:15.838Z,6.28
2023-03-27T02:20:09.920Z,6.27
2023-03-27T02:22:40.399Z,6.23
2023-03-27T02:25:25.754Z,6.21
2023-03-27T02:28:07.208Z,6.19
2023-03-27T02:30:42.059Z,6.18
2023-03-27T02:33:19.795Z,6.18
2023-03-27T02:36:09.381Z,6.17
2023-03-27T02:38:46.292Z,6.16
2023-03-27T02:41:27.273Z,6.17
2023-03-27T02:44:06.621Z,6.18
2023-03-27T02:47:13.694Z,6.18
2023-03-27T02:49:54.293Z,6.17
2023-03-27T02:52:34.525Z,6.16
2023-03-27T02:55:10.856Z,6.14
2023-03-27T02:57:39.737Z,6.10
2023-03-27T03:00:31.081Z,6.07
2023-03-27T03:03:34.568Z,6.04
2023-03-27T03:06:11.554Z,6.00
2023-03-27T03:08:40.475Z,5.97
2023-03-27T03:11:13.791Z,5.94
2023-03-27T03:13:42.661Z,5.88
2023-03-27T03:16:11.962Z,5.82
2023-03-27T03:18:41.961Z,5.73
2023-03-27T03:21:10.964Z,5.65
2023-03-27T03:23:39.960Z,5.60
2023-03-27T03:26:08.621Z,5.54
2023-03-27T03:29:00.698Z,5.46
2023-03-27T03:31:43.752Z,5.40
2023-03-27T03:34:16.628Z,5.33
2023-03-27T03:36:50.094Z,5.27
2023-03-27T03:39:23.556Z,5.21
2023-03-27T03:41:52.595Z,5.14
2023-03-27T03:44:21.665Z,5.06
2023-03-27T03:46:50.760Z,4.96
2023-03-27T03:49:22.826Z,4.85
2023-03-27T03:52:03.850Z,4.74
2023-03-27T03:54:33.489Z,4.62
2023-03-27T03:57:03.704Z,4.54
2023-03-27T03:59:34.448Z,4.45
2023-03-27T04:02:31.664Z,4.38
2023-03-27T04:05:10.727Z,4.30
2023-03-27T04:07:42.681Z,4.23
2023-03-27T04:10:35.821Z,4.15
2023-03-27T04:13:07.907Z,4.07
2023-03-27T04:15:39.697Z,4.00
2023-03-27T04:18:11.574Z,3.91
2023-03-27T04:20:42.999Z,3.77
2023-03-27T04:23:14.531Z,3.61
2023-03-27T04:25:43.386Z,3.47
2023-03-27T04:28:17.003Z,3.36
2023-03-27T04:30:50.929Z,3.23
2023-03-27T04:33:47.842Z,3.07
2023-03-27T04:36:40.059Z,2.91
2023-03-27T04:39:13.449Z,2.77
2023-03-27T04:41:46.300Z,2.65
2023-03-27T04:44:18.466Z,2.53
2023-03-27T04:46:52.140Z,2.41
2023-03-27T04:49:20.851Z,2.30
2023-03-27T04:51:56.720Z,2.20
2023-03-27T04:54:32.177Z,2.10
2023-03-27T04:57:02.508Z,1.98
2023-03-27T04:59:34.664Z,1.85
2023-03-27T05:02:23.639Z,1.72
2023-03-27T05:05:15.747Z,1.62
2023-03-27T05:07:46.494Z,1.56
2023-03-27T05:10:21.882Z,1.48
2023-03-27T05:12:55.874Z,1.39
2023-03-27T05:15:28.314Z,1.31
2023-03-27T05:17:58.094Z,1.25
2023-03-27T05:20:28.139Z,1.24
2023-03-27T05:22:57.544Z,1.25
2023-03-27T05:25:31.441Z,1.29
2023-03-27T05:28:01.576Z,1.33
2023-03-27T05:30:36.054Z,1.37
2023-03-27T05:33:24.617Z,1.40
2023-03-27T05:35:54.302Z,1.43
2023-03-27T05:38:24.904Z,1.45
2023-03-27T05:41:12.242Z,1.45
2023-03-27T05:43:45.788Z,1.38
2023-03-27T05:46:21.346Z,1.28
2023-03-27T05:49:20.757Z,1.17
2023-03-27T05:51:53.123Z,1.07
2023-03-27T05:54:23.555Z,0.94
2023-03-27T05:57:01.816Z,0.78
2023-03-27T05:59:34.781Z,0.64
2023-03-27T06:02:21.004Z,0.52
2023-03-27T06:05:05.490Z,0.42
2023-03-27T06:07:43.253Z,0.35
2023-03-27T06:10:18.250Z,0.27
2023-03-27T06:13:07.179Z,0.22
2023-03-27T06:15:47.498Z,0.18
2023-03-27T06:18:49.019Z,0.16
2023-03-27T06:21:19.657Z,0.14
2023-03-27T06:23:51.692Z,0.13
2023-03-27T06:26:21.373Z,0.10
2023-03-27T06:28:50.594Z,0.10
2023-03-27T06:31:20.544Z,0.08
2023-03-27T06:33:57.183Z,0.07
2023-03-27T06:37:05.276Z,0.05
2023-03-27T06:39:39.523Z,0.01
2023-03-27T06:42:09.778Z,-0.04
2023-03-27T06:45:01.654Z,-0.10
2023-03-27T06:47:57.719Z,-0.12
2023-03-27T06:50:45.730Z,-0.14
2023-03-27T06:55:51.903Z,-0.11
2023-03-27T06:58:20.902Z,-0.09
2023-03-27T07:00:50.646Z,-0.07
2023-03-27T07:03:23.175Z,-0.05
2023-03-27T07:05:55.899Z,-0.03
2023-03-27T07:08:28.542Z,0.01
2023-03-27T07:11:11.509Z,0.05
2023-03-27T07:13:44.543Z,0.09
2023-03-27T07:16:22.153Z,0.14
2023-03-27T07:18:51.431Z,0.19
2023-03-27T07:21:21.350Z,0.25
2023-03-27T07:23:50.443Z,0.30
2023-03-27T07:26:29.851Z,0.36
2023-03-27T07:29:03.656Z,0.40
2023-03-27T07:31:55.009Z,0.43
2023-03-27T07:34:21.480Z,0.45
2023-03-27T07:37:19.746Z,0.48
2023-03-27T07:40:14.710Z,0.51
2023-03-27T07:42:52.033Z,0.55
2023-03-27T07:45:24.587Z,0.60
2023-03-27T07:48:05.969Z,0.64
2023-03-27T07:50:36.503Z,0.66
2023-03-27T07:53:08.771Z,0.68
2023-03-27T07:55:38.279Z,0.72
2023-03-27T07:58:08.765Z,0.73
2023-03-27T08:00:39.628Z,0.76
2023-03-27T08:03:14.519Z,0.79
2023-03-27T08:05:56.346Z,0.81
2023-03-27T08:08:26.898Z,0.85
2023-03-27T08:11:00.854Z,0.88
2023-03-27T08:13:33.698Z,0.91
2023-03-27T08:16:07.864Z,0.95
2023-03-27T08:18:38.968Z,0.98
2023-03-27T08:21:09.967Z,1.01
2023-03-27T08:23:41.180Z,1.05
2023-03-27T08:26:10.388Z,1.10
2023-03-27T08:28:47.287Z,1.13
2023-03-27T08:31:17.037Z,1.13
2023-03-27T08:33:47.032Z,1.16
2023-03-27T08:36:22.359Z,1.18
2023-03-27T08:38:55.688Z,1.21
2023-03-27T08:41:42.181Z,1.28
2023-03-27T08:44:17.089Z,1.36
2023-03-27T08:46:54.254Z,1.42
2023-03-27T08:49:27.157Z,1.45
2023-03-27T08:52:15.080Z,1.50
2023-03-27T08:54:53.886Z,1.54
2023-03-27T08:57:32.327Z,1.58
2023-03-27T09:00:10.595Z,1.60
2023-03-27T09:02:49.259Z,1.57
2023-03-27T09:06:02.284Z,1.55
2023-03-27T09:09:04.260Z,1.51
2023-03-27T09:11:44.707Z,1.49
2023-03-27T09:14:32.360Z,1.51
2023-03-27T09:17:10.630Z,1.54
2023-03-27T09:19:51.215Z,1.57
2023-03-27T09:22:27.843Z,1.58
2023-03-27T09:25:38.501Z,1.59
2023-03-27T09:28:51.932Z,1.62
2023-03-27T09:31:28.506Z,1.65
2023-03-27T09:34:01.885Z,1.68
2023-03-27T09:36:31.360Z,1.73
2023-03-27T09:39:10.911Z,1.76
2023-03-27T09:41:46.756Z,1.79
2023-03-27T09:44:31.870Z,1.84
2023-03-27T09:47:28.661Z,1.88
2023-03-27T09:50:23.813Z,1.93
2023-03-27T09:53:10.772Z,1.96
2023-03-27T09:55:50.948Z,1.96
2023-03-27T09:58:29.998Z,1.94
2023-03-27T10:01:36.668Z,1.91
2023-03-27T10:04:21.439Z,1.88
2023-03-27T10:07:02.283Z,1.86
2023-03-27T10:10:07.331Z,1.86
2023-03-27T10:12:42.874Z,1.88
2023-03-27T10:15:36.860Z,1.93
2023-03-27T10:18:23.974Z,2.02
2023-03-27T10:20:55.110Z,2.12
2023-03-27T10:23:27.404Z,2.17
2023-03-27T10:26:02.008Z,2.20
2023-03-27T10:28:45.747Z,2.19
2023-03-27T10:31:30.220Z,2.17
2023-03-27T10:34:38.788Z,2.14
2023-03-27T10:37:24.504Z,2.13
2023-03-27T10:39:56.670Z,2.13
2023-03-27T10:42:37.790Z,2.13
2023-03-27T10:45:10.320Z,2.12
2023-03-27T10:47:39.064Z,2.13
2023-03-27T10:50:23.937Z,2.14
2023-03-27T10:53:14.297Z,2.18
2023-03-27T10:56:12.240Z,2.24
2023-03-27T10:58:52.119Z,2.33
2023-03-27T11:01:43.143Z,2.44
2023-03-27T11:04:16.127Z,2.55
2023-03-27T11:06:53.388Z,2.61
2023-03-27T11:09:36.406Z,2.70
2023-03-27T11:12:17.161Z,2.82
2023-03-27T11:15:12.579Z,2.92
2023-03-27T11:18:10.386Z,2.98
2023-03-27T11:20:57.414Z,3.00
2023-03-27T11:23:39.017Z,3.04
2023-03-27T11:26:35.177Z,3.07
2023-03-27T11:29:15.128Z,3.07
2023-03-27T11:31:50.247Z,3.10
2023-03-27T11:34:38.752Z,3.17
2023-03-27T11:37:44.044Z,3.25
2023-03-27T11:40:20.825Z,3.27
2023-03-27T11:42:53.512Z,3.25
2023-03-27T11:45:30.350Z,3.22
2023-03-27T11:48:22.304Z,3.20
2023-03-27T11:51:09.223Z,3.24
2023-03-27T11:54:00.062Z,3.33
2023-03-27T11:56:54.739Z,3.38
2023-03-27T12:00:01.402Z,3.39
2023-03-27T12:02:39.100Z,3.42
2023-03-27T12:05:36.959Z,3.48
2023-03-27T12:08:45.818Z,3.57
2023-03-27T12:11:17.457Z,3.65
2023-03-27T12:14:08.948Z,3.70
2023-03-27T12:17:20.246Z,3.73
2023-03-27T12:20:59.031Z,3.77
2023-03-27T12:23:42.928Z,3.83
2023-03-27T12:26:53.387Z,3.86
2023-03-27T12:29:53.109Z,3.85
2023-03-27T12:32:38.591Z,3.82
2023-03-27T12:35:12.655Z,3.77
2023-03-27T12:37:56.837Z,3.74
2023-03-27T12:40:32.596Z,3.73
2023-03-27T12:43:27.188Z,3.74
2023-03-27T12:46:24.754Z,3.74
2023-03-27T12:49:11.345Z,3.77
2023-03-27T12:52:05.745Z,3.78
2023-03-27T12:55:31.413Z,3.83
2023-03-27T12:58:03.023Z,3.93
2023-03-27T13:01:00.935Z,4.05
2023-03-27T13:04:24.149Z,4.19
2023-03-27T13:07:06.307Z,4.29
2023-03-27T13:10:12.518Z,4.39
2023-03-27T13:12:58.131Z,4.45
2023-03-27T13:15:32.046Z,4.53
2023-03-27T13:18:08.487Z,4.65
2023-03-27T13:21:11.373Z,4.78
2023-03-27T13:24:03.694Z,4.82
2023-03-27T13:26:51.039Z,4.82
2023-03-27T13:29:24.528Z,4.86
2023-03-27T13:32:03.696Z,4.85
2023-03-27T13:35:23.599Z,4.85
2023-03-27T13:37:58.445Z,4.88
2023-03-27T13:40:39.053Z,4.92
2023-03-27T13:43:25.710Z,5.00
2023-03-27T13:46:19.835Z,5.09
2023-03-27T13:49:27.827Z,5.07
2023-03-27T13:52:23.927Z,5.03
2023-03-27T13:55:17.562Z,4.99
2023-03-27T13:58:38.135Z,4.97
2023-03-27T14:01:26.012Z,4.97
2023-03-27T14:04:40.015Z,4.99
2023-03-27T14:07:17.126Z,5.04
2023-03-27T14:10:30.735Z,5.09
2023-03-27T14:13:18.894Z,5.13
2023-03-27T14:15:57.217Z,5.13
2023-03-27T14:18:36.200Z,5.09
2023-03-27T14:21:09.618Z,5.02
2023-03-27T14:23:59.234Z,4.91
2023-03-27T14:26:42.197Z,4.80
2023-03-27T14:29:21.733Z,4.75
2023-03-27T14:31:52.785Z,4.74
2023-03-27T14:34:35.250Z,4.78
2023-03-27T14:37:37.216Z,4.83
2023-03-27T14:40:23.269Z,4.87
2023-03-27T14:42:56.106Z,4.92
2023-03-27T14:45:30.613Z,4.95
2023-03-27T14:48:01.650Z,5.00
2023-03-27T14:50:38.687Z,5.04
2023-03-27T14:53:11.223Z,5.05
2023-03-27T14:56:13.428Z,5.04
2023-03-27T14:59:02.465Z,4.96
2023-03-27T15:01:42.798Z,4.86
2023-03-27T15:04:14.047Z,4.81
2023-03-27T15:06:44.118Z,4.80
2023-03-27T15:09:16.006Z,4.79
2023-03-27T15:12:11.442Z,4.83
2023-03-27T15:14:41.873Z,4.85
2023-03-27T15:17:21.987Z,4.88
2023-03-27T15:20:11.247Z,4.90
2023-03-27T15:22:45.422Z,4.90
2023-03-27T15:25:39.894Z,4.89
2023-03-27T15:28:41.315Z,4.88
2023-03-27T15:31:11.581Z,4.87
2023-03-27T15:33:53.864Z,4.88
2023-03-27T15:36:29.240Z,4.90
2023-03-27T15:39:01.098Z,4.84
2023-03-27T15:41:33.296Z,4.77
2023-03-27T15:44:06.898Z,4.70
2023-03-27T15:46:56.102Z,4.66
2023-03-27T15:49:37.496Z,4.64
2023-03-27T15:52:32.030Z,4.63
2023-03-27T15:55:02.507Z,4.64
2023-03-27T15:57:31.853Z,4.65
2023-03-27T16:00:10.345Z,4.66
2023-03-27T16:02:44.426Z,4.67
2023-03-27T16:05:18.614Z,4.68
2023-03-27T16:07:49.270Z,4.69
2023-03-27T16:10:34.430Z,4.71
2023-03-27T16:13:06.957Z,4.72
2023-03-27T16:15:42.160Z,4.72
2023-03-27T16:18:27.548Z,4.73
2023-03-27T16:21:07.777Z,4.74
2023-03-27T16:23:38.784Z,4.73
2023-03-27T16:26:10.654Z,4.71
2023-03-27T16:28:41.200Z,4.68
2023-03-27T16:31:13.921Z,4.64
2023-03-27T16:33:46.386Z,4.60
2023-03-27T16:36:22.259Z,4.54
2023-03-27T16:38:52.743Z,4.47
2023-03-27T16:41:25.564Z,4.40
2023-03-27T16:43:55.116Z,4.34
2023-03-27T16:46:28.462Z,4.27
2023-03-27T16:48:58.492Z,4.21
2023-03-27T16:51:29.609Z,4.14
2023-03-27T16:54:00.823Z,4.07
2023-03-27T16:56:31.024Z,4.00
2023-03-27T16:59:00.715Z,3.92
2023-03-27T17:01:30.900Z,3.84
2023-03-27T17:04:07.666Z,3.77
2023-03-27T17:06:38.624Z,3.71
2023-03-27T17:09:11.878Z,3.63
2023-03-27T17:11:41.643Z,3.55
2023-03-27T17:14:11.741Z,3.48
2023-03-27T17:16:43.453Z,3.40
2023-03-27T17:19:14.080Z,3.31
2023-03-27T17:21:44.707Z,3.25
2023-03-27T17:24:15.456Z,3.16
2023-03-27T17:26:45.249Z,3.07
2023-03-27T17:29:14.269Z,3.01
2023-03-27T17:31:43.970Z,2.93
2023-03-27T17:34:14.643Z,2.86
2023-03-27T17:36:54.225Z,2.77
2023-03-27T17:39:27.736Z,2.69
2023-03-27T17:41:57.448Z,2.62
2023-03-27T17:44:27.786Z,2.56
2023-03-27T17:46:59.085Z,2.49
2023-03-27T17:49:32.106Z,2.43
2023-03-27T17:52:03.175Z,2.37
2023-03-27T17:54:35.601Z,2.30
2023-03-27T17:57:05.830Z,2.24
2023-03-27T17:59:39.590Z,2.18
2023-03-27T18:02:08.663Z,2.13
2023-03-27T18:04:39.821Z,2.10
2023-03-27T18:07:09.795Z,2.05
2023-03-27T18:09:42.997Z,2.01
2023-03-27T18:12:13.525Z,1.98
2023-03-27T18:14:44.335Z,1.94
2023-03-27T18:17:16.670Z,1.88
2023-03-27T18:19:46.856Z,1.81
2023-03-27T18:22:18.014Z,1.72
2023-03-27T18:24:48.982Z,1.64
2023-03-27T18:27:22.521Z,1.57
2023-03-27T18:29:57.959Z,1.49
2023-03-27T18:32:32.904Z,1.43
2023-03-27T18:35:04.294Z,1.38
2023-03-27T18:37:39.228Z,1.32
2023-03-27T18:40:10.826Z,1.27
2023-03-27T18:42:44.259Z,1.22
2023-03-27T18:45:16.777Z,1.18
2023-03-27T18:47:47.755Z,1.14
2023-03-27T18:50:21.686Z,1.10
2023-03-27T18:52:53.126Z,1.05
2023-03-27T18:55:26.854Z,0.99
2023-03-27T18:58:01.059Z,0.93
2023-03-27T19:00:31.774Z,0.89
2023-03-27T19:03:02.312Z,0.85
2023-03-27T19:05:32.231Z,0.82
2023-03-27T19:08:05.542Z,0.79
2023-03-27T19:10:37.353Z,0.77
2023-03-27T19:13:23.257Z,0.75
2023-03-27T19:16:15.180Z,0.73
2023-03-27T19:19:06.992Z,0.70
2023-03-27T19:21:59.642Z,0.68
2023-03-27T19:24:53.699Z,0.66
2023-03-27T19:27:38.378Z,0.61
2023-03-27T19:30:12.690Z,0.55
2023-03-27T19:32:44.754Z,0.47
2023-03-27T19:35:15.685Z,0.42
2023-03-27T19:37:46.168Z,0.40
2023-03-27T19:40:18.287Z,0.38
2023-03-27T19:42:49.255Z,0.39
2023-03-27T19:45:20.811Z,0.39
2023-03-27T19:47:51.177Z,0.38
2023-03-27T19:50:22.752Z,0.37
2023-03-27T19:53:23.675Z,0.37
2023-03-27T19:55:58.299Z,0.41
2023-03-27T19:58:30.447Z,0.46
2023-03-27T20:01:01.613Z,0.51
2023-03-27T20:03:33.603Z,0.57
2023-03-27T20:06:13.817Z,0.64
2023-03-27T20:08:45.799Z,0.70
2023-03-27T20:11:20.930Z,0.74
2023-03-27T20:13:56.543Z,0.77
2023-03-27T20:16:29.862Z,0.79
2023-03-27T20:19:04.947Z,0.80
2023-03-27T20:21:40.450Z,0.82
2023-03-27T20:24:15.112Z,0.83
2023-03-27T20:26:48.947Z,0.84
2023-03-27T20:29:23.697Z,0.85
2023-03-27T20:31:53.886Z,0.87
2023-03-27T20:34:25.279Z,0.86
2023-03-27T20:36:55.318Z,0.85
2023-03-27T20:39:33.962Z,0.83
2023-03-27T20:42:04.170Z,0.81
2023-03-27T20:44:36.158Z,0.77
2023-03-27T20:47:11.588Z,0.74
2023-03-27T20:49:43.438Z,0.70
2023-03-27T20:52:15.688Z,0.66
2023-03-27T20:54:44.721Z,0.63
2023-03-27T20:57:14.442Z,0.61
2023-03-27T20:59:44.468Z,0.58
2023-03-27T21:02:19.345Z,0.56
2023-03-27T21:04:48.456Z,0.53
2023-03-27T21:07:17.638Z,0.51
2023-03-27T21:09:47.767Z,0.49
2023-03-27T21:12:17.102Z,0.46
2023-03-27T21:14:45.958Z,0.44
2023-03-27T21:17:14.521Z,0.41
2023-03-27T21:19:43.430Z,0.37
2023-03-27T21:22:12.232Z,0.35
2023-03-27T21:24:43.043Z,0.31
2023-03-27T21:27:11.950Z,0.28
2023-03-27T21:29:40.939Z,0.23
2023-03-27T21:32:12.128Z,0.19
2023-03-27T21:34:41.426Z,0.15
2023-03-27T21:37:10.252Z,0.10
2023-03-27T21:39:39.262Z,0.07
2023-03-27T21:42:08.160Z,0.05
2023-03-27T21:44:36.940Z,0.04
2023-03-27T21:47:05.929Z,0.04
2023-03-27T21:49:34.623Z,0.04
2023-03-27T21:52:03.503Z,0.03
2023-03-27T21:54:32.181Z,0.01
2023-03-27T21:57:03.052Z,-0.01
2023-03-27T21:59:31.924Z,-0.02
2023-03-27T22:02:00.922Z,-0.03
2023-03-27T22:04:30.247Z,-0.03
2023-03-27T22:07:00.238Z,-0.03
2023-03-27T22:09:30.157Z,-0.05
2023-03-27T22:11:58.958Z,-0.06
2023-03-27T22:14:27.505Z,-0.05
2023-03-27T22:16:56.596Z,-0.05
2023-03-27T22:19:25.290Z,-0.05
2023-03-27T22:21:54.411Z,-0.04
2023-03-27T22:24:25.455Z,-0.05
2023-03-27T22:26:54.238Z,-0.06
2023-03-27T22:29:23.201Z,-0.06
2023-03-27T22:31:52.415Z,-0.06
2023-03-27T22:34:21.819Z,-0.06
2023-03-27T22:36:50.497Z,-0.07
2023-03-27T22:39:19.488Z,-0.09
2023-03-27T22:41:48.568Z,-0.09
2023-03-27T22:44:18.589Z,-0.09
2023-03-27T22:46:47.321Z,-0.09
2023-03-27T22:49:16.494Z,-0.10
2023-03-27T22:51:45.284Z,-0.11
2023-03-27T22:54:14.274Z,-0.11
2023-03-27T22:56:44.326Z,-0.13
2023-03-27T22:59:18.818Z,-0.14
2023-03-27T23:01:47.845Z,-0.15
2023-03-27T23:04:16.980Z,-0.16
2023-03-27T23:06:45.872Z,-0.18
2023-03-27T23:09:14.987Z,-0.18
2023-03-27T23:11:44.405Z,-0.17
2023-03-27T23:14:13.572Z,-0.15
2023-03-27T23:16:43.223Z,-0.15
2023-03-27T23:19:11.970Z,-0.15
2023-03-27T23:21:40.874Z,-0.14
2023-03-27T23:24:09.677Z,-0.15
2023-03-27T23:26:38.559Z,-0.15
2023-03-27T23:29:08.686Z,-0.16
2023-03-27T23:31:37.362Z,-0.16
2023-03-27T23:34:06.158Z,-0.18
2023-03-27T23:36:35.118Z,-0.18
2023-03-27T23:39:04.021Z,-0.18
2023-03-27T23:41:32.690Z,-0.17
2023-03-27T23:44:01.693Z,-0.17
2023-03-27T23:46:30.532Z,-0.16
2023-03-27T23:48:59.475Z,-0.15
2023-03-27T23:51:28.179Z,-0.14
2023-03-27T23:53:57.161Z,-0.14
2023-03-27T23:56:26.256Z,-0.14
2023-03-27T23:58:55.027Z,-0.14
